sensor_id;sensor_type;location;lat;lon;timestamp;pressure;altitude;pressure_sealevel;temperature;humidity
75298;BME280;63896;45.990;18.688;2022-10-31T00:02:36;101473.50;;;10.62;96.99
75298;BME280;63896;45.990;18.688;2022-10-31T00:05:49;101473.22;;;10.57;97.19
75298;BME280;63896;45.990;18.688;2022-10-31T00:08:55;101467.97;;;10.63;96.83
75298;BME280;63896;45.990;18.688;2022-10-31T00:11:58;101469.81;;;10.63;96.72
75298;BME280;63896;45.990;18.688;2022-10-31T00:15:01;101474.25;;;10.77;96.15
75298;BME280;63896;45.990;18.688;2022-10-31T00:18:05;101476.38;;;10.67;96.55
75298;BME280;63896;45.990;18.688;2022-10-31T00:21:08;101483.16;;;10.69;96.88
75298;BME280;63896;45.990;18.688;2022-10-31T00:24:11;101481.69;;;10.67;96.89
75298;BME280;63896;45.990;18.688;2022-10-31T00:27:14;101470.06;;;10.68;96.68
75298;BME280;63896;45.990;18.688;2022-10-31T00:30:17;101477.91;;;10.76;96.51
75298;BME280;63896;45.990;18.688;2022-10-31T00:33:20;101482.66;;;10.80;96.04
75298;BME280;63896;45.990;18.688;2022-10-31T00:36:23;101476.41;;;10.88;95.48
75298;BME280;63896;45.990;18.688;2022-10-31T00:39:26;101482.28;;;10.83;96.15
75298;BME280;63896;45.990;18.688;2022-10-31T00:42:29;101486.38;;;10.86;95.75
75298;BME280;63896;45.990;18.688;2022-10-31T00:45:33;101482.59;;;10.95;95.46
75298;BME280;63896;45.990;18.688;2022-10-31T00:48:36;101489.44;;;11.04;95.28
75298;BME280;63896;45.990;18.688;2022-10-31T00:51:38;101481.59;;;10.96;95.21
75298;BME280;63896;45.990;18.688;2022-10-31T00:54:41;101478.97;;;10.81;95.51
75298;BME280;63896;45.990;18.688;2022-10-31T00:57:47;101474.72;;;10.80;95.07
75298;BME280;63896;45.990;18.688;2022-10-31T01:00:50;101477.03;;;10.90;95.57
75298;BME280;63896;45.990;18.688;2022-10-31T01:03:58;101483.06;;;10.98;95.34
75298;BME280;63896;45.990;18.688;2022-10-31T01:07:01;101469.91;;;10.90;95.51
75298;BME280;63896;45.990;18.688;2022-10-31T01:10:05;101465.72;;;10.81;95.50
75298;BME280;63896;45.990;18.688;2022-10-31T01:13:09;101468.97;;;10.77;95.62
75298;BME280;63896;45.990;18.688;2022-10-31T01:16:14;101458.25;;;10.70;96.09
75298;BME280;63896;45.990;18.688;2022-10-31T01:19:18;101458.50;;;10.75;96.05
75298;BME280;63896;45.990;18.688;2022-10-31T01:22:22;101459.59;;;10.81;95.91
75298;BME280;63896;45.990;18.688;2022-10-31T01:25:25;101456.38;;;10.64;95.84
75298;BME280;63896;45.990;18.688;2022-10-31T01:28:29;101454.09;;;10.61;96.19
75298;BME280;63896;45.990;18.688;2022-10-31T01:31:35;101455.97;;;10.46;96.94
75298;BME280;63896;45.990;18.688;2022-10-31T01:34:39;101455.69;;;10.41;97.01
75298;BME280;63896;45.990;18.688;2022-10-31T01:37:41;101458.31;;;10.56;96.92
75298;BME280;63896;45.990;18.688;2022-10-31T01:40:44;101448.50;;;10.56;96.82
75298;BME280;63896;45.990;18.688;2022-10-31T01:43:55;101452.06;;;10.63;96.35
75298;BME280;63896;45.990;18.688;2022-10-31T01:47:02;101451.06;;;10.64;96.54
75298;BME280;63896;45.990;18.688;2022-10-31T01:50:14;101452.81;;;10.57;96.97
75298;BME280;63896;45.990;18.688;2022-10-31T01:53:18;101443.81;;;10.58;96.49
75298;BME280;63896;45.990;18.688;2022-10-31T01:56:28;101447.47;;;10.72;95.88
75298;BME280;63896;45.990;18.688;2022-10-31T01:59:33;101444.75;;;10.65;95.99
75298;BME280;63896;45.990;18.688;2022-10-31T02:02:39;101438.22;;;10.68;96.42
75298;BME280;63896;45.990;18.688;2022-10-31T02:05:42;101441.31;;;10.71;96.13
75298;BME280;63896;45.990;18.688;2022-10-31T02:08:46;101443.91;;;10.86;95.40
75298;BME280;63896;45.990;18.688;2022-10-31T02:11:54;101448.47;;;10.71;95.87
75298;BME280;63896;45.990;18.688;2022-10-31T02:14:59;101444.66;;;10.59;96.27
75298;BME280;63896;45.990;18.688;2022-10-31T02:18:04;101433.34;;;10.50;96.67
75298;BME280;63896;45.990;18.688;2022-10-31T02:21:18;101432.47;;;10.64;95.83
75298;BME280;63896;45.990;18.688;2022-10-31T02:28:19;101432.91;;;10.68;95.79
75298;BME280;63896;45.990;18.688;2022-10-31T02:42:03;101428.16;;;10.42;97.04
75298;BME280;63896;45.990;18.688;2022-10-31T02:45:33;101435.19;;;10.49;96.48
75298;BME280;63896;45.990;18.688;2022-10-31T02:48:39;101435.47;;;10.40;96.76
75298;BME280;63896;45.990;18.688;2022-10-31T02:51:45;101438.41;;;10.45;96.89
75298;BME280;63896;45.990;18.688;2022-10-31T02:54:48;101444.03;;;10.57;96.15
75298;BME280;63896;45.990;18.688;2022-10-31T02:57:54;101442.06;;;10.44;95.97
75298;BME280;63896;45.990;18.688;2022-10-31T03:01:26;101451.34;;;10.55;96.06
75298;BME280;63896;45.990;18.688;2022-10-31T03:08:22;101446.25;;;10.53;95.17
75298;BME280;63896;45.990;18.688;2022-10-31T03:11:39;101457.38;;;10.63;94.56
75298;BME280;63896;45.990;18.688;2022-10-31T03:15:04;101446.75;;;10.42;95.93
75298;BME280;63896;45.990;18.688;2022-10-31T03:18:25;101453.16;;;10.33;96.22
75298;BME280;63896;45.990;18.688;2022-10-31T03:21:47;101456.56;;;10.27;96.38
75298;BME280;63896;45.990;18.688;2022-10-31T03:24:53;101453.81;;;10.35;96.11
75298;BME280;63896;45.990;18.688;2022-10-31T03:27:59;101459.22;;;10.27;96.04
75298;BME280;63896;45.990;18.688;2022-10-31T03:31:07;101459.94;;;10.21;96.10
75298;BME280;63896;45.990;18.688;2022-10-31T03:34:15;101453.97;;;10.04;97.00
75298;BME280;63896;45.990;18.688;2022-10-31T03:37:20;101453.34;;;10.02;97.30
75298;BME280;63896;45.990;18.688;2022-10-31T03:40:27;101449.41;;;9.98;97.32
75298;BME280;63896;45.990;18.688;2022-10-31T03:43:33;101460.31;;;10.03;97.34
75298;BME280;63896;45.990;18.688;2022-10-31T03:46:40;101451.59;;;10.09;97.71
75298;BME280;63896;45.990;18.688;2022-10-31T03:49:43;101457.00;;;10.16;97.51
75298;BME280;63896;45.990;18.688;2022-10-31T03:52:55;101457.56;;;10.11;97.59
75298;BME280;63896;45.990;18.688;2022-10-31T03:56:09;101456.06;;;10.09;97.69
75298;BME280;63896;45.990;18.688;2022-10-31T03:59:21;101456.72;;;10.25;96.78
75298;BME280;63896;45.990;18.688;2022-10-31T04:02:31;101452.16;;;10.34;96.70
75298;BME280;63896;45.990;18.688;2022-10-31T04:05:36;101462.31;;;10.16;97.00
75298;BME280;63896;45.990;18.688;2022-10-31T04:08:44;101464.41;;;10.20;96.93
75298;BME280;63896;45.990;18.688;2022-10-31T04:11:56;101454.25;;;10.24;96.91
75298;BME280;63896;45.990;18.688;2022-10-31T04:15:20;101459.94;;;10.21;96.93
75298;BME280;63896;45.990;18.688;2022-10-31T04:18:25;101453.81;;;10.35;96.29
75298;BME280;63896;45.990;18.688;2022-10-31T04:21:29;101454.69;;;10.42;95.02
75298;BME280;63896;45.990;18.688;2022-10-31T04:24:33;101458.28;;;10.34;95.26
75298;BME280;63896;45.990;18.688;2022-10-31T04:27:36;101451.69;;;10.30;95.78
75298;BME280;63896;45.990;18.688;2022-10-31T04:30:39;101450.53;;;10.18;96.11
75298;BME280;63896;45.990;18.688;2022-10-31T04:33:42;101456.13;;;10.23;95.75
75298;BME280;63896;45.990;18.688;2022-10-31T04:36:45;101447.22;;;10.31;95.71
75298;BME280;63896;45.990;18.688;2022-10-31T04:39:50;101448.59;;;10.27;95.57
75298;BME280;63896;45.990;18.688;2022-10-31T04:43:11;101456.00;;;9.87;97.26
75298;BME280;63896;45.990;18.688;2022-10-31T04:46:17;101456.38;;;9.99;97.20
75298;BME280;63896;45.990;18.688;2022-10-31T04:49:20;101461.03;;;9.97;97.24
75298;BME280;63896;45.990;18.688;2022-10-31T04:52:23;101459.75;;;10.08;96.99
75298;BME280;63896;45.990;18.688;2022-10-31T04:55:27;101457.19;;;10.14;96.92
75298;BME280;63896;45.990;18.688;2022-10-31T04:58:32;101465.06;;;10.22;96.57
75298;BME280;63896;45.990;18.688;2022-10-31T05:01:35;101465.69;;;10.24;95.52
75298;BME280;63896;45.990;18.688;2022-10-31T05:04:39;101460.47;;;10.16;95.93
75298;BME280;63896;45.990;18.688;2022-10-31T05:07:43;101463.47;;;10.13;96.35
75298;BME280;63896;45.990;18.688;2022-10-31T05:10:47;101461.66;;;10.28;95.57
75298;BME280;63896;45.990;18.688;2022-10-31T05:13:50;101464.97;;;10.16;96.05
75298;BME280;63896;45.990;18.688;2022-10-31T05:17:12;101460.31;;;10.03;96.55
75298;BME280;63896;45.990;18.688;2022-10-31T05:20:51;101462.97;;;10.03;95.62
75298;BME280;63896;45.990;18.688;2022-10-31T05:24:01;101465.22;;;10.06;95.86
75298;BME280;63896;45.990;18.688;2022-10-31T05:27:04;101461.22;;;9.81;96.69
75298;BME280;63896;45.990;18.688;2022-10-31T05:30:08;101469.53;;;10.07;95.95
75298;BME280;63896;45.990;18.688;2022-10-31T05:33:12;101466.69;;;10.09;95.84
75298;BME280;63896;45.990;18.688;2022-10-31T05:36:33;101470.16;;;9.94;96.33
75298;BME280;63896;45.990;18.688;2022-10-31T05:39:39;101472.53;;;10.04;96.24
75298;BME280;63896;45.990;18.688;2022-10-31T05:42:50;101475.84;;;10.06;96.09
75298;BME280;63896;45.990;18.688;2022-10-31T05:45:54;101476.84;;;10.05;95.62
75298;BME280;63896;45.990;18.688;2022-10-31T05:49:15;101484.97;;;9.89;95.76
75298;BME280;63896;45.990;18.688;2022-10-31T05:52:38;101482.97;;;9.91;95.34
75298;BME280;63896;45.990;18.688;2022-10-31T05:55:51;101490.94;;;9.91;95.51
75298;BME280;63896;45.990;18.688;2022-10-31T05:58:56;101496.56;;;9.73;95.77
75298;BME280;63896;45.990;18.688;2022-10-31T06:02:01;101500.25;;;9.87;95.01
75298;BME280;63896;45.990;18.688;2022-10-31T06:05:27;101507.34;;;9.57;95.86
75298;BME280;63896;45.990;18.688;2022-10-31T06:08:30;101504.84;;;9.41;96.31
75298;BME280;63896;45.990;18.688;2022-10-31T06:11:37;101514.72;;;9.62;95.84
75298;BME280;63896;45.990;18.688;2022-10-31T06:14:39;101515.03;;;9.67;95.45
75298;BME280;63896;45.990;18.688;2022-10-31T06:17:43;101522.69;;;9.62;95.97
75298;BME280;63896;45.990;18.688;2022-10-31T06:20:58;101519.94;;;9.70;95.86
75298;BME280;63896;45.990;18.688;2022-10-31T06:24:00;101514.94;;;9.60;96.07
75298;BME280;63896;45.990;18.688;2022-10-31T06:27:29;101513.75;;;9.77;95.32
75298;BME280;63896;45.990;18.688;2022-10-31T06:30:36;101523.16;;;9.65;95.81
75298;BME280;63896;45.990;18.688;2022-10-31T06:33:42;101530.28;;;9.65;96.48
75298;BME280;63896;45.990;18.688;2022-10-31T06:36:46;101527.81;;;9.78;95.47
75298;BME280;63896;45.990;18.688;2022-10-31T06:39:50;101530.31;;;9.94;95.08
75298;BME280;63896;45.990;18.688;2022-10-31T06:43:00;101527.50;;;9.95;94.16
75298;BME280;63896;45.990;18.688;2022-10-31T06:46:05;101527.97;;;9.99;94.30
75298;BME280;63896;45.990;18.688;2022-10-31T06:49:14;101524.03;;;10.24;93.56
75298;BME280;63896;45.990;18.688;2022-10-31T06:52:24;101524.69;;;10.12;94.11
75298;BME280;63896;45.990;18.688;2022-10-31T06:55:28;101538.13;;;10.25;93.67
75298;BME280;63896;45.990;18.688;2022-10-31T06:58:31;101535.38;;;10.33;93.54
75298;BME280;63896;45.990;18.688;2022-10-31T07:01:36;101541.44;;;10.27;93.61
75298;BME280;63896;45.990;18.688;2022-10-31T07:04:40;101549.56;;;10.40;93.06
75298;BME280;63896;45.990;18.688;2022-10-31T07:07:43;101548.28;;;10.36;93.76
75298;BME280;63896;45.990;18.688;2022-10-31T07:10:52;101545.91;;;10.26;93.96
75298;BME280;63896;45.990;18.688;2022-10-31T07:13:57;101541.69;;;10.17;94.61
75298;BME280;63896;45.990;18.688;2022-10-31T07:17:00;101548.19;;;10.29;94.52
75298;BME280;63896;45.990;18.688;2022-10-31T07:20:16;101549.81;;;10.45;93.95
75298;BME280;63896;45.990;18.688;2022-10-31T07:23:20;101548.91;;;10.52;94.07
75298;BME280;63896;45.990;18.688;2022-10-31T07:26:39;101556.50;;;10.56;94.18
75298;BME280;63896;45.990;18.688;2022-10-31T07:29:42;101551.72;;;10.66;93.36
75298;BME280;63896;45.990;18.688;2022-10-31T07:32:50;101550.22;;;10.78;92.86
75298;BME280;63896;45.990;18.688;2022-10-31T07:35:54;101555.94;;;10.60;94.01
75298;BME280;63896;45.990;18.688;2022-10-31T07:38:59;101554.53;;;10.79;93.01
75298;BME280;63896;45.990;18.688;2022-10-31T07:42:06;101555.97;;;10.96;92.63
75298;BME280;63896;45.990;18.688;2022-10-31T07:45:13;101554.03;;;10.90;92.74
75298;BME280;63896;45.990;18.688;2022-10-31T07:48:51;101559.28;;;11.05;92.45
75298;BME280;63896;45.990;18.688;2022-10-31T07:52:12;101554.56;;;11.21;91.65
75298;BME280;63896;45.990;18.688;2022-10-31T07:55:34;101554.00;;;11.26;90.79
75298;BME280;63896;45.990;18.688;2022-10-31T07:58:37;101557.09;;;11.29;91.22
75298;BME280;63896;45.990;18.688;2022-10-31T08:01:40;101553.31;;;11.17;91.95
75298;BME280;63896;45.990;18.688;2022-10-31T08:05:07;101555.41;;;11.22;91.68
75298;BME280;63896;45.990;18.688;2022-10-31T08:08:33;101551.81;;;11.08;92.08
75298;BME280;63896;45.990;18.688;2022-10-31T08:11:40;101557.34;;;11.13;92.66
75298;BME280;63896;45.990;18.688;2022-10-31T08:14:43;101559.56;;;11.31;92.38
75298;BME280;63896;45.990;18.688;2022-10-31T08:17:46;101561.78;;;11.06;92.54
75298;BME280;63896;45.990;18.688;2022-10-31T08:20:49;101560.63;;;11.36;91.52
75298;BME280;63896;45.990;18.688;2022-10-31T08:23:52;101568.16;;;11.75;89.78
75298;BME280;63896;45.990;18.688;2022-10-31T08:26:58;101566.03;;;11.92;88.62
75298;BME280;63896;45.990;18.688;2022-10-31T08:30:01;101569.75;;;11.48;90.48
75298;BME280;63896;45.990;18.688;2022-10-31T08:33:10;101568.56;;;11.72;89.79
75298;BME280;63896;45.990;18.688;2022-10-31T08:36:34;101577.25;;;11.87;88.38
75298;BME280;63896;45.990;18.688;2022-10-31T08:39:46;101567.88;;;11.91;87.90
75298;BME280;63896;45.990;18.688;2022-10-31T08:43:16;101580.38;;;11.98;88.13
75298;BME280;63896;45.990;18.688;2022-10-31T08:46:19;101575.03;;;11.91;88.21
75298;BME280;63896;45.990;18.688;2022-10-31T08:49:22;101573.00;;;11.93;89.18
75298;BME280;63896;45.990;18.688;2022-10-31T08:52:25;101573.31;;;12.05;89.04
75298;BME280;63896;45.990;18.688;2022-10-31T08:55:49;101566.63;;;12.22;88.05
75298;BME280;63896;45.990;18.688;2022-10-31T08:58:58;101561.00;;;12.38;87.47
75298;BME280;63896;45.990;18.688;2022-10-31T09:02:20;101570.13;;;12.63;85.40
75298;BME280;63896;45.990;18.688;2022-10-31T09:05:25;101561.94;;;12.65;84.74
75298;BME280;63896;45.990;18.688;2022-10-31T09:08:32;101559.75;;;12.34;86.54
75298;BME280;63896;45.990;18.688;2022-10-31T09:11:36;101566.03;;;12.20;89.11
75298;BME280;63896;45.990;18.688;2022-10-31T09:14:45;101564.34;;;12.12;88.40
75298;BME280;63896;45.990;18.688;2022-10-31T09:17:59;101563.66;;;12.04;88.52
75298;BME280;63896;45.990;18.688;2022-10-31T09:21:07;101558.50;;;12.30;87.99
75298;BME280;63896;45.990;18.688;2022-10-31T09:24:10;101559.63;;;12.49;87.59
75298;BME280;63896;45.990;18.688;2022-10-31T09:27:13;101564.75;;;12.50;87.32
75298;BME280;63896;45.990;18.688;2022-10-31T09:30:19;101547.66;;;12.31;88.05
75298;BME280;63896;45.990;18.688;2022-10-31T09:33:24;101551.09;;;12.25;89.08
75298;BME280;63896;45.990;18.688;2022-10-31T09:36:47;101535.13;;;12.25;88.83
75298;BME280;63896;45.990;18.688;2022-10-31T09:39:54;101540.22;;;12.61;86.87
75298;BME280;63896;45.990;18.688;2022-10-31T09:53:05;101541.50;;;12.78;85.54
75298;BME280;63896;45.990;18.688;2022-10-31T09:56:15;101548.63;;;12.65;85.88
75298;BME280;63896;45.990;18.688;2022-10-31T09:59:25;101547.88;;;12.77;86.90
75298;BME280;63896;45.990;18.688;2022-10-31T10:02:39;101550.53;;;12.77;87.34
75298;BME280;63896;45.990;18.688;2022-10-31T10:05:56;101538.63;;;12.80;85.59
75298;BME280;63896;45.990;18.688;2022-10-31T10:09:14;101541.38;;;13.06;84.50
75298;BME280;63896;45.990;18.688;2022-10-31T10:13:24;101545.75;;;13.27;83.70
75298;BME280;63896;45.990;18.688;2022-10-31T10:23:54;101543.50;;;13.50;82.50
75298;BME280;63896;45.990;18.688;2022-10-31T10:30:50;101532.63;;;13.32;83.98
75298;BME280;63896;45.990;18.688;2022-10-31T10:34:31;101528.72;;;13.41;84.99
75298;BME280;63896;45.990;18.688;2022-10-31T10:37:38;101527.69;;;13.16;84.31
75298;BME280;63896;45.990;18.688;2022-10-31T10:40:42;101524.31;;;12.94;86.35
75298;BME280;63896;45.990;18.688;2022-10-31T10:43:49;101525.84;;;13.16;86.43
75298;BME280;63896;45.990;18.688;2022-10-31T10:46:56;101528.53;;;13.36;85.83
75298;BME280;63896;45.990;18.688;2022-10-31T10:50:23;101520.72;;;13.15;85.79
75298;BME280;63896;45.990;18.688;2022-10-31T10:53:39;101522.38;;;13.35;85.63
75298;BME280;63896;45.990;18.688;2022-10-31T10:57:09;101512.31;;;13.64;84.49
75298;BME280;63896;45.990;18.688;2022-10-31T11:00:32;101510.66;;;13.89;82.55
75298;BME280;63896;45.990;18.688;2022-10-31T11:03:35;101502.88;;;13.81;82.88
75298;BME280;63896;45.990;18.688;2022-10-31T11:06:38;101505.28;;;14.02;81.85
75298;BME280;63896;45.990;18.688;2022-10-31T11:09:41;101507.41;;;13.61;85.48
75298;BME280;63896;45.990;18.688;2022-10-31T11:12:57;101499.59;;;13.59;84.42
75298;BME280;63896;45.990;18.688;2022-10-31T11:16:08;101503.28;;;13.65;83.83
75298;BME280;63896;45.990;18.688;2022-10-31T11:22:17;101490.16;;;13.76;83.51
75298;BME280;63896;45.990;18.688;2022-10-31T11:25:21;101497.91;;;13.91;83.52
75298;BME280;63896;45.990;18.688;2022-10-31T11:28:25;101492.91;;;14.14;81.86
75298;BME280;63896;45.990;18.688;2022-10-31T11:31:29;101493.38;;;13.98;83.06
75298;BME280;63896;45.990;18.688;2022-10-31T11:34:36;101490.72;;;13.98;83.15
75298;BME280;63896;45.990;18.688;2022-10-31T11:37:43;101490.72;;;13.98;82.91
75298;BME280;63896;45.990;18.688;2022-10-31T11:40:59;101493.81;;;13.89;83.11
75298;BME280;63896;45.990;18.688;2022-10-31T11:47:20;101493.31;;;14.24;82.22
75298;BME280;63896;45.990;18.688;2022-10-31T11:50:30;101487.00;;;14.12;82.33
75298;BME280;63896;45.990;18.688;2022-10-31T11:53:34;101485.25;;;14.38;81.68
75298;BME280;63896;45.990;18.688;2022-10-31T11:56:41;101481.09;;;14.48;80.78
75298;BME280;63896;45.990;18.688;2022-10-31T11:59:52;101479.69;;;14.46;80.85
75298;BME280;63896;45.990;18.688;2022-10-31T12:06:31;101474.13;;;13.90;83.42
75298;BME280;63896;45.990;18.688;2022-10-31T12:09:36;101464.78;;;14.18;82.24
75298;BME280;63896;45.990;18.688;2022-10-31T12:16:04;101469.03;;;14.39;81.43
75298;BME280;63896;45.990;18.688;2022-10-31T12:19:24;101467.75;;;14.55;80.81
75298;BME280;63896;45.990;18.688;2022-10-31T12:25:44;101461.06;;;14.26;81.94
75298;BME280;63896;45.990;18.688;2022-10-31T12:29:02;101460.25;;;14.19;81.96
75298;BME280;63896;45.990;18.688;2022-10-31T12:32:35;101455.34;;;14.16;83.83
75298;BME280;63896;45.990;18.688;2022-10-31T12:36:08;101461.13;;;14.13;82.27
75298;BME280;63896;45.990;18.688;2022-10-31T12:39:24;101457.03;;;14.04;83.00
75298;BME280;63896;45.990;18.688;2022-10-31T12:45:53;101462.69;;;13.63;84.33
75298;BME280;63896;45.990;18.688;2022-10-31T12:49:11;101457.19;;;13.12;86.19
75298;BME280;63896;45.990;18.688;2022-10-31T12:55:46;101460.44;;;13.01;87.36
75298;BME280;63896;45.990;18.688;2022-10-31T12:58:56;101463.25;;;12.73;87.74
75298;BME280;63896;45.990;18.688;2022-10-31T13:02:13;101453.25;;;13.21;85.90
75298;BME280;63896;45.990;18.688;2022-10-31T13:05:24;101461.25;;;13.41;85.71
75298;BME280;63896;45.990;18.688;2022-10-31T13:08:39;101463.09;;;13.60;84.84
75298;BME280;63896;45.990;18.688;2022-10-31T13:11:47;101455.22;;;13.91;83.66
75298;BME280;63896;45.990;18.688;2022-10-31T13:14:55;101458.28;;;13.95;83.34
75298;BME280;63896;45.990;18.688;2022-10-31T13:18:04;101467.59;;;13.72;84.35
75298;BME280;63896;45.990;18.688;2022-10-31T13:21:16;101464.38;;;13.24;85.91
75298;BME280;63896;45.990;18.688;2022-10-31T13:24:26;101453.47;;;13.32;86.22
75298;BME280;63896;45.990;18.688;2022-10-31T13:27:42;101458.41;;;13.55;85.75
75298;BME280;63896;45.990;18.688;2022-10-31T13:30:47;101460.06;;;13.23;86.66
75298;BME280;63896;45.990;18.688;2022-10-31T13:34:01;101470.22;;;12.80;88.44
75298;BME280;63896;45.990;18.688;2022-10-31T13:40:45;101462.69;;;12.97;87.88
75298;BME280;63896;45.990;18.688;2022-10-31T13:47:24;101463.44;;;12.65;89.05
75298;BME280;63896;45.990;18.688;2022-10-31T13:50:30;101467.28;;;12.56;89.58
75298;BME280;63896;45.990;18.688;2022-10-31T13:53:42;101462.66;;;12.90;88.34
75298;BME280;63896;45.990;18.688;2022-10-31T13:56:49;101461.06;;;13.16;87.26
75298;BME280;63896;45.990;18.688;2022-10-31T13:59:56;101463.34;;;13.12;88.00
75298;BME280;63896;45.990;18.688;2022-10-31T14:02:59;101462.69;;;13.04;88.02
75298;BME280;63896;45.990;18.688;2022-10-31T14:06:03;101453.66;;;13.05;88.19
75298;BME280;63896;45.990;18.688;2022-10-31T14:09:39;101459.84;;;13.18;87.56
75298;BME280;63896;45.990;18.688;2022-10-31T14:12:45;101450.59;;;13.01;88.30
75298;BME280;63896;45.990;18.688;2022-10-31T14:19:06;101458.16;;;12.98;88.62
75298;BME280;63896;45.990;18.688;2022-10-31T14:22:23;101456.94;;;13.07;88.81
75298;BME280;63896;45.990;18.688;2022-10-31T14:25:27;101461.44;;;12.93;89.36
75298;BME280;63896;45.990;18.688;2022-10-31T14:28:32;101457.72;;;12.94;89.57
75298;BME280;63896;45.990;18.688;2022-10-31T14:38:05;101447.72;;;12.89;89.67
75298;BME280;63896;45.990;18.688;2022-10-31T14:50:57;101446.69;;;12.97;88.81
75298;BME280;63896;45.990;18.688;2022-10-31T14:54:01;101452.63;;;12.93;88.97
75298;BME280;63896;45.990;18.688;2022-10-31T14:57:14;101449.53;;;12.82;89.30
75298;BME280;63896;45.990;18.688;2022-10-31T15:00:20;101456.25;;;12.59;90.58
75298;BME280;63896;45.990;18.688;2022-10-31T15:03:33;101457.69;;;12.55;90.98
75298;BME280;63896;45.990;18.688;2022-10-31T15:06:52;101451.91;;;12.51;91.10
75298;BME280;63896;45.990;18.688;2022-10-31T15:09:57;101451.72;;;12.46;91.52
75298;BME280;63896;45.990;18.688;2022-10-31T15:13:17;101446.38;;;12.39;91.74
75298;BME280;63896;45.990;18.688;2022-10-31T15:16:24;101446.97;;;12.41;92.05
75298;BME280;63896;45.990;18.688;2022-10-31T15:19:28;101446.56;;;12.38;92.19
75298;BME280;63896;45.990;18.688;2022-10-31T15:22:32;101442.84;;;12.32;91.78
75298;BME280;63896;45.990;18.688;2022-10-31T15:25:35;101453.28;;;12.27;91.93
75298;BME280;63896;45.990;18.688;2022-10-31T15:28:38;101446.72;;;12.23;92.16
75298;BME280;63896;45.990;18.688;2022-10-31T15:34:55;101450.81;;;12.26;91.95
75298;BME280;63896;45.990;18.688;2022-10-31T15:37:58;101440.56;;;12.23;91.98
75298;BME280;63896;45.990;18.688;2022-10-31T15:41:45;101443.00;;;12.18;92.23
75298;BME280;63896;45.990;18.688;2022-10-31T15:45:05;101445.81;;;12.10;92.40
75298;BME280;63896;45.990;18.688;2022-10-31T15:48:22;101435.81;;;12.12;92.41
75298;BME280;63896;45.990;18.688;2022-10-31T15:51:28;101451.38;;;12.08;92.52
75298;BME280;63896;45.990;18.688;2022-10-31T15:54:32;101448.97;;;12.20;92.27
75298;BME280;63896;45.990;18.688;2022-10-31T15:57:59;101453.06;;;12.22;92.12
75298;BME280;63896;45.990;18.688;2022-10-31T16:01:05;101439.34;;;12.32;91.59
75298;BME280;63896;45.990;18.688;2022-10-31T16:07:17;101448.59;;;12.36;91.18
75298;BME280;63896;45.990;18.688;2022-10-31T16:10:26;101448.81;;;12.34;91.18
75298;BME280;63896;45.990;18.688;2022-10-31T16:13:31;101451.88;;;12.31;91.08
75298;BME280;63896;45.990;18.688;2022-10-31T16:16:41;101446.41;;;12.05;92.25
75298;BME280;63896;45.990;18.688;2022-10-31T16:22:55;101458.56;;;11.80;94.13
75298;BME280;63896;45.990;18.688;2022-10-31T16:26:05;101457.25;;;11.69;94.46
75298;BME280;63896;45.990;18.688;2022-10-31T16:29:25;101454.25;;;11.79;94.52
75298;BME280;63896;45.990;18.688;2022-10-31T16:32:37;101462.72;;;11.89;93.91
75298;BME280;63896;45.990;18.688;2022-10-31T16:35:55;101464.34;;;11.90;93.88
75298;BME280;63896;45.990;18.688;2022-10-31T16:39:18;101468.91;;;11.96;93.55
75298;BME280;63896;45.990;18.688;2022-10-31T16:42:21;101478.31;;;11.99;93.25
75298;BME280;63896;45.990;18.688;2022-10-31T16:45:26;101484.06;;;12.02;92.97
75298;BME280;63896;45.990;18.688;2022-10-31T16:48:29;101484.69;;;12.04;92.99
75298;BME280;63896;45.990;18.688;2022-10-31T16:51:32;101485.53;;;12.05;93.06
75298;BME280;63896;45.990;18.688;2022-10-31T16:54:35;101487.19;;;11.78;94.21
75298;BME280;63896;45.990;18.688;2022-10-31T16:57:38;101490.03;;;11.76;94.66
75298;BME280;63896;45.990;18.688;2022-10-31T17:00:41;101489.91;;;11.84;94.66
75298;BME280;63896;45.990;18.688;2022-10-31T17:03:44;101492.84;;;12.03;93.78
75298;BME280;63896;45.990;18.688;2022-10-31T17:06:47;101496.53;;;12.02;93.38
75298;BME280;63896;45.990;18.688;2022-10-31T17:09:49;101500.88;;;12.09;93.24
75298;BME280;63896;45.990;18.688;2022-10-31T17:12:53;101502.09;;;12.07;93.30
75298;BME280;63896;45.990;18.688;2022-10-31T17:16:02;101502.13;;;12.13;93.14
75298;BME280;63896;45.990;18.688;2022-10-31T17:19:09;101497.78;;;12.06;93.47
75298;BME280;63896;45.990;18.688;2022-10-31T17:22:14;101504.44;;;11.88;94.43
75298;BME280;63896;45.990;18.688;2022-10-31T17:25:19;101500.28;;;11.79;94.64
75298;BME280;63896;45.990;18.688;2022-10-31T17:28:24;101501.06;;;11.73;94.99
75298;BME280;63896;45.990;18.688;2022-10-31T17:31:30;101506.19;;;11.75;94.95
75298;BME280;63896;45.990;18.688;2022-10-31T17:34:33;101516.66;;;11.83;94.73
75298;BME280;63896;45.990;18.688;2022-10-31T17:37:36;101509.75;;;11.88;94.78
75298;BME280;63896;45.990;18.688;2022-10-31T17:40:39;101509.66;;;12.03;94.06
75298;BME280;63896;45.990;18.688;2022-10-31T17:43:43;101513.03;;;12.25;93.02
75298;BME280;63896;45.990;18.688;2022-10-31T17:46:46;101510.47;;;12.04;93.65
75298;BME280;63896;45.990;18.688;2022-10-31T17:49:49;101516.25;;;12.14;93.27
75298;BME280;63896;45.990;18.688;2022-10-31T17:52:57;101514.66;;;12.19;92.81
75298;BME280;63896;45.990;18.688;2022-10-31T17:56:02;101507.97;;;12.36;92.58